Vasingtonia, DC (20001)

03:02 PM EDT die 26o September, anno 2016 (GMT -0400)
Eckington Pl, NE | | Change Station

Elev 90 ft 38.91 °N, 77.01 °W | Updated 4 minutes ago

Overcast
Aequaliter Nubila
68.2 °F
Feels Like 68.2 °F
N
7.0
Ventus Variabilis Ventus from Magis Eurus quam Auster
Gusts 16.0 mph

Hodie
High -- | Low -- °F
--% Chance of Precip.
Yesterday
High -- | Low -- °F
Precip. -- in
Pressio 30.07 in
Visibilitas 10.0 milia passuum
Clouds Aequaliter Nubila 2700 ft
Frigus in quo Ros apparet 61 °F
Umor 77%
Rainfall Not available.
Snow Depth Not available.
6:59 AM 6:57 PM
Waning Crescent, 17% visible
METAR KDCA 261852Z 17011KT 10SM OVC027 21/16 A3007 RMK AO2 SLP183 T02110161
Pressio 30.07 in
Visibilitas 10.0 milia passuum
Clouds Aequaliter Nubila 2700 ft
Frigus in quo Ros apparet 61 °F
Umor 77%
Rainfall Not available.
Snow Depth Not available.
6:59 AM 6:57 PM
Waning Crescent, 17% visible
METAR KDCA 261852Z 17011KT 10SM OVC027 21/16 A3007 RMK AO2 SLP183 T02110161

10-Day Weather Forecast

Almanac

Astronomy

Sep. 26, 2016 Rise Set
Actual Time
Civil Twilight
Nautical Twilight
Astronomical Twilight
Moon
Length Of Visible Light
Length of Day
Tomorrow will be .
, % of the Moon is Illuminated

Today's Extremes

State Highs State Lows

Community

WunderPhotos

Upload Photos

1,941,951 photos uploaded!

WunderBlog® & News

Nearby

Air Quality

  Air Quality AQ Index Pollutant
Not available.

Snow Depth

Station Depth Elevation

Earthquake Activity

City Distance Mag. Time & Date
Minimum magnitude displayed is 2.5.

Coastal Water Temperatures

Locus Calor

Stations

Nearby Weather Stations

Station Location Temp Frigus Venti Frigus in quo Ros apparet Umor Ventus Precip. Elev Renovata Type
                   

Watches & Warnings

There are currently no watches in effect.